Time;durP1;ratioP1;P1;durP2;ratioP2;P2;SDS_P1;SDS_P2;PMS_P1;PMS_P2;Temp;Humidity;BMP_temperature;BMP_pressure;BME280_temperature;BME280_humidity;BME280_pressure;Samples;Min_cycle;Max_cycle;Signal;HPM_P1;HPM_P2
2023/11/27 00:00:37;;;;;;;6.30;5.68;;;;;;;;;;5076956;28;20425;-80
2023/11/27 00:03:03;;;;;;;8.95;6.05;;;;;;;;;;5076614;28;20429;-80
2023/11/27 00:05:29;;;;;;;6.10;5.50;;;;;;;;;;5076084;28;20779;-80
2023/11/27 00:07:55;;;;;;;5.90;5.40;;;;;;;;;;5076134;28;20415;-80
2023/11/27 00:10:21;;;;;;;6.30;5.70;;;;;;;;;;5058910;28;20874;-80
2023/11/27 00:12:48;;;;;;;6.93;6.23;;;;;;;;;;5076635;28;20501;-80
2023/11/27 00:15:14;;;;;;;6.57;5.93;;;;;;;;;;5076389;28;20853;-80
2023/11/27 00:17:40;;;;;;;6.80;6.10;;;;;;;;;;5076351;28;20384;-80
2023/11/27 00:20:09;;;;;;;6.85;6.25;;;;;;;;;;5076203;28;20816;-80
2023/11/27 00:22:35;;;;;;;5.88;5.38;;;;;;;;;;5076571;28;20433;-80
2023/11/27 00:25:01;;;;;;;5.78;5.28;;;;;;;;;;5071634;28;20379;-80
2023/11/27 00:27:27;;;;;;;6.18;5.57;;;;;;;;;;5056414;28;20410;-80
2023/11/27 00:29:53;;;;;;;6.07;5.47;;;;;;;;;;5056398;28;20384;-80
2023/11/27 00:32:19;;;;;;;6.10;5.50;;;;;;;;;;5056353;28;20381;-80
2023/11/27 00:34:46;;;;;;;6.50;5.90;;;;;;;;;;5056282;28;20752;-81
2023/11/27 00:37:12;;;;;;;4.90;4.50;;;;;;;;;;5056305;28;20851;-81
2023/11/27 00:39:37;;;;;;;6.00;5.40;;;;;;;;;;5056244;28;20472;-80
2023/11/27 00:42:04;;;;;;;5.53;5.00;;;;;;;;;;5056181;28;20389;-80
2023/11/27 00:44:30;;;;;;;5.90;5.40;;;;;;;;;;5055825;28;20388;-81
2023/11/27 00:46:55;;;;;;;5.55;5.05;;;;;;;;;;5055143;28;20429;-80
2023/11/27 00:49:21;;;;;;;6.22;5.18;;;;;;;;;;5055565;28;20397;-81
2023/11/27 00:51:47;;;;;;;6.23;5.13;;;;;;;;;;5056401;28;20429;-81
2023/11/27 00:54:13;;;;;;;5.10;4.65;;;;;;;;;;5075968;28;20441;-80
2023/11/27 00:56:40;;;;;;;5.67;5.17;;;;;;;;;;5076143;28;20378;-80
2023/11/27 00:59:07;;;;;;;5.63;5.13;;;;;;;;;;5058506;28;20391;-80
2023/11/27 01:01:33;;;;;;;6.83;5.60;;;;;;;;;;5075687;28;20422;-80
2023/11/27 01:03:59;;;;;;;5.80;5.20;;;;;;;;;;5075605;28;20387;-80
2023/11/27 01:06:25;;;;;;;5.70;5.13;;;;;;;;;;5076296;28;20391;-80
2023/11/27 01:08:51;;;;;;;5.47;4.60;;;;;;;;;;5076185;28;20904;-80
2023/11/27 01:11:17;;;;;;;4.93;4.50;;;;;;;;;;5075752;28;20380;-80
2023/11/27 01:13:43;;;;;;;5.80;4.97;;;;;;;;;;5076213;28;20412;-80
2023/11/27 01:16:09;;;;;;;5.23;4.73;;;;;;;;;;5076139;28;20454;-80
2023/11/27 01:18:35;;;;;;;5.40;4.90;;;;;;;;;;5076247;28;20382;-80
2023/11/27 01:21:01;;;;;;;5.22;4.72;;;;;;;;;;5075646;28;20455;-80
2023/11/27 01:23:27;;;;;;;5.95;5.35;;;;;;;;;;5076116;28;20403;-80
2023/11/27 01:25:53;;;;;;;6.07;5.17;;;;;;;;;;5075550;28;20391;-80
2023/11/27 01:28:19;;;;;;;5.13;4.63;;;;;;;;;;5075606;28;20395;-80
2023/11/27 01:30:45;;;;;;;5.55;5.03;;;;;;;;;;5075886;28;20383;-80
2023/11/27 01:33:12;;;;;;;5.68;4.88;;;;;;;;;;5075553;28;20388;-80
2023/11/27 01:35:38;;;;;;;5.25;4.80;;;;;;;;;;5075689;28;20410;-80
2023/11/27 01:38:04;;;;;;;5.25;4.75;;;;;;;;;;5076115;28;20376;-80
2023/11/27 01:40:30;;;;;;;5.00;4.60;;;;;;;;;;5075141;28;20378;-80
2023/11/27 01:42:56;;;;;;;5.40;4.90;;;;;;;;;;5076164;28;20861;-80
2023/11/27 01:45:22;;;;;;;5.38;4.93;;;;;;;;;;5075745;28;20380;-80
2023/11/27 01:47:49;;;;;;;5.72;4.78;;;;;;;;;;5079458;28;20419;-80
2023/11/27 01:50:15;;;;;;;5.95;4.88;;;;;;;;;;5079220;28;20891;-80
2023/11/27 01:52:41;;;;;;;5.55;5.05;;;;;;;;;;5079675;28;20383;-80
2023/11/27 01:55:07;;;;;;;5.97;5.43;;;;;;;;;;5079458;28;20379;-80
2023/11/27 01:57:34;;;;;;;5.85;5.30;;;;;;;;;;5079172;28;20384;-80
2023/11/27 02:00:03;;;;;;;5.43;4.93;;;;;;;;;;5078858;28;20391;-80
2023/11/27 02:02:30;;;;;;;5.43;4.93;;;;;;;;;;5079238;28;20833;-80
2023/11/27 02:04:56;;;;;;;5.88;5.28;;;;;;;;;;5079293;28;20386;-80
2023/11/27 02:07:23;;;;;;;5.20;4.70;;;;;;;;;;5079130;28;20395;-80
2023/11/27 02:09:49;;;;;;;5.00;4.50;;;;;;;;;;5079396;28;20384;-80
2023/11/27 02:12:15;;;;;;;4.95;4.55;;;;;;;;;;5061236;28;20383;-80
2023/11/27 02:14:41;;;;;;;5.53;5.03;;;;;;;;;;5078673;28;20398;-80
2023/11/27 02:17:07;;;;;;;5.03;4.50;;;;;;;;;;5077839;28;20372;-80
2023/11/27 02:19:33;;;;;;;4.90;4.40;;;;;;;;;;5079027;28;20411;-80
2023/11/27 02:21:59;;;;;;;5.40;4.95;;;;;;;;;;5079219;28;20372;-80
2023/11/27 02:24:25;;;;;;;6.18;4.57;;;;;;;;;;5073751;28;20982;-80
2023/11/27 02:26:51;;;;;;;5.30;4.72;;;;;;;;;;5058493;28;20530;-80
2023/11/27 02:29:17;;;;;;;5.28;4.40;;;;;;;;;;5058413;28;20476;-80
2023/11/27 02:31:43;;;;;;;4.68;4.28;;;;;;;;;;5058651;28;20385;-80
2023/11/27 02:34:09;;;;;;;5.65;4.57;;;;;;;;;;5058613;28;20778;-81
2023/11/27 02:36:40;;;;;;;4.90;4.50;;;;;;;;;;5058484;28;20504;-80
2023/11/27 02:39:06;;;;;;;4.72;4.30;;;;;;;;;;5058707;28;20438;-80
2023/11/27 02:41:35;;;;;;;5.07;4.57;;;;;;;;;;5058039;28;20770;-80
2023/11/27 02:44:01;;;;;;;5.20;4.70;;;;;;;;;;5058542;28;20467;-80
2023/11/27 02:46:27;;;;;;;5.18;4.68;;;;;;;;;;5058168;28;20436;-80
2023/11/27 02:48:53;;;;;;;6.05;4.90;;;;;;;;;;5058226;28;20405;-80
2023/11/27 02:51:20;;;;;;;5.45;4.90;;;;;;;;;;5058602;28;20492;-80
2023/11/27 02:53:46;;;;;;;5.63;5.13;;;;;;;;;;5071391;28;20410;-80
2023/11/27 02:56:13;;;;;;;5.53;5.03;;;;;;;;;;5078168;28;20380;-80
2023/11/27 02:58:39;;;;;;;5.80;5.20;;;;;;;;;;5078741;28;20379;-80
2023/11/27 03:01:09;;;;;;;6.35;5.75;;;;;;;;;;5078958;28;20384;-79
2023/11/27 03:03:36;;;;;;;5.85;5.35;;;;;;;;;;5078063;28;20450;-79
2023/11/27 03:06:02;;;;;;;5.85;5.35;;;;;;;;;;5078106;28;20382;-79
2023/11/27 03:08:28;;;;;;;5.85;5.32;;;;;;;;;;5078756;28;20404;-79
2023/11/27 03:10:54;;;;;;;6.20;5.60;;;;;;;;;;5078250;28;20711;-80
2023/11/27 03:13:20;;;;;;;6.43;5.82;;;;;;;;;;5077917;28;20372;-80
2023/11/27 03:15:46;;;;;;;6.22;5.60;;;;;;;;;;5077622;28;20388;-79
2023/11/27 03:18:12;;;;;;;6.35;5.78;;;;;;;;;;5077749;28;20830;-79
2023/11/27 03:20:38;;;;;;;7.40;6.40;;;;;;;;;;5077708;28;20410;-79
2023/11/27 03:23:04;;;;;;;6.47;5.88;;;;;;;;;;5078248;28;20768;-80
2023/11/27 03:25:30;;;;;;;10.27;8.20;;;;;;;;;;5077473;28;20474;-79
2023/11/27 03:27:56;;;;;;;6.43;5.87;;;;;;;;;;5077184;28;20447;-79
2023/11/27 03:30:22;;;;;;;6.20;5.60;;;;;;;;;;5078176;28;20384;-80
2023/11/27 03:32:50;;;;;;;6.00;5.50;;;;;;;;;;5077570;28;20367;-80
2023/11/27 03:35:16;;;;;;;6.10;5.60;;;;;;;;;;5077472;28;20379;-80
2023/11/27 03:37:43;;;;;;;6.43;5.75;;;;;;;;;;5077194;28;20383;-79
2023/11/27 03:40:09;;;;;;;5.80;5.30;;;;;;;;;;5077315;28;20379;-79
2023/11/27 03:42:35;;;;;;;6.20;5.63;;;;;;;;;;5076664;28;20467;-79
2023/11/27 03:45:01;;;;;;;6.90;6.30;;;;;;;;;;5078336;28;20413;-79
2023/11/27 03:47:27;;;;;;;6.00;5.40;;;;;;;;;;5077291;28;20917;-79
2023/11/27 03:49:54;;;;;;;6.03;5.07;;;;;;;;;;5077008;28;20383;-79
2023/11/27 03:52:22;;;;;;;5.68;5.10;;;;;;;;;;5077282;28;20383;-79
2023/11/27 03:54:48;;;;;;;5.43;4.93;;;;;;;;;;5076805;28;20447;-80
2023/11/27 03:57:15;;;;;;;5.22;4.78;;;;;;;;;;5076274;28;20375;-80
2023/11/27 03:59:41;;;;;;;5.82;5.32;;;;;;;;;;5076728;28;20411;-80
2023/11/27 04:02:09;;;;;;;6.35;5.40;;;;;;;;;;5076156;28;20380;-79
2023/11/27 04:04:35;;;;;;;6.13;5.53;;;;;;;;;;5076330;28;20865;-79
2023/11/27 04:07:01;;;;;;;7.03;4.90;;;;;;;;;;5075816;28;20390;-79
2023/11/27 04:09:27;;;;;;;5.35;4.85;;;;;;;;;;5075576;28;20383;-79
2023/11/27 04:11:53;;;;;;;5.10;4.55;;;;;;;;;;5075960;28;20376;-79
2023/11/27 04:14:19;;;;;;;5.63;5.13;;;;;;;;;;5076146;28;20892;-80
2023/11/27 04:16:45;;;;;;;6.07;5.13;;;;;;;;;;5076600;28;20380;-79
2023/11/27 04:19:11;;;;;;;5.65;5.00;;;;;;;;;;5076489;28;20760;-80
2023/11/27 04:21:37;;;;;;;5.80;5.20;;;;;;;;;;5076453;28;20893;-79
2023/11/27 04:24:03;;;;;;;5.63;5.05;;;;;;;;;;5076914;28;20426;-79
2023/11/27 04:26:29;;;;;;;5.57;4.80;;;;;;;;;;5076813;28;20375;-79
2023/11/27 04:28:55;;;;;;;5.68;5.18;;;;;;;;;;5076465;28;20426;-80
2023/11/27 04:31:21;;;;;;;5.32;4.82;;;;;;;;;;5074589;28;20380;-79
2023/11/27 04:33:47;;;;;;;4.53;4.13;;;;;;;;;;5076754;28;20450;-79
2023/11/27 04:36:19;;;;;;;5.07;4.63;;;;;;;;;;5076931;28;20376;-79
2023/11/27 04:38:45;;;;;;;4.30;3.90;;;;;;;;;;5076364;28;20498;-79
2023/11/27 04:41:12;;;;;;;12.95;11.13;;;;;;;;;;5075924;28;20375;-80
2023/11/27 04:43:38;;;;;;;9.88;8.88;;;;;;;;;;5076418;28;20387;-80
2023/11/27 04:46:07;;;;;;;9.50;8.60;;;;;;;;;;5076584;28;20412;-79
2023/11/27 04:48:33;;;;;;;9.40;8.43;;;;;;;;;;5076049;28;20452;-79
2023/11/27 04:50:59;;;;;;;13.50;11.95;;;;;;;;;;5077175;28;20399;-79
2023/11/27 04:53:25;;;;;;;16.63;14.02;;;;;;;;;;5077040;28;20368;-79
2023/11/27 04:55:51;;;;;;;18.70;14.68;;;;;;;;;;5076123;28;20383;-80
2023/11/27 04:58:18;;;;;;;14.95;12.75;;;;;;;;;;5076089;28;20699;-79
2023/11/27 05:00:44;;;;;;;12.20;11.00;;;;;;;;;;5076668;28;20411;-79
2023/11/27 05:03:10;;;;;;;10.50;9.30;;;;;;;;;;5076336;28;20410;-80
2023/11/27 05:05:36;;;;;;;10.23;8.75;;;;;;;;;;5076420;28;20388;-79
2023/11/27 05:08:02;;;;;;;8.10;7.25;;;;;;;;;;5075568;28;20414;-79
2023/11/27 05:10:28;;;;;;;8.27;7.47;;;;;;;;;;5076370;28;20756;-79
2023/11/27 05:12:54;;;;;;;17.20;13.15;;;;;;;;;;5076615;28;20387;-79
2023/11/27 05:15:21;;;;;;;13.38;11.38;;;;;;;;;;5076497;28;20376;-79
2023/11/27 05:17:47;;;;;;;14.73;10.95;;;;;;;;;;5075906;28;20375;-79
2023/11/27 05:20:13;;;;;;;15.40;12.43;;;;;;;;;;5077887;28;20881;-79
2023/11/27 05:22:39;;;;;;;15.55;11.98;;;;;;;;;;5080245;28;20888;-79
2023/11/27 05:25:06;;;;;;;13.43;11.87;;;;;;;;;;5080597;28;20413;-79
2023/11/27 05:27:32;;;;;;;14.55;10.82;;;;;;;;;;5080198;28;20415;-79
2023/11/27 05:29:58;;;;;;;13.35;11.30;;;;;;;;;;5080514;28;20398;-79
2023/11/27 05:32:24;;;;;;;14.65;11.38;;;;;;;;;;5080568;28;20372;-79
2023/11/27 05:34:49;;;;;;;13.33;11.10;;;;;;;;;;5080363;28;20380;-79
2023/11/27 05:37:15;;;;;;;11.77;10.57;;;;;;;;;;5079751;28;20391;-80
2023/11/27 05:39:42;;;;;;;11.95;10.68;;;;;;;;;;5080526;28;20380;-79
2023/11/27 05:42:11;;;;;;;11.93;10.27;;;;;;;;;;5079702;28;20385;-80
2023/11/27 05:44:38;;;;;;;14.02;11.55;;;;;;;;;;5080489;28;20412;-80
2023/11/27 05:47:04;;;;;;;13.00;10.05;;;;;;;;;;5079617;28;20938;-80
2023/11/27 05:49:33;;;;;;;12.68;10.15;;;;;;;;;;5079764;28;20441;-80
2023/11/27 05:51:59;;;;;;;12.05;10.52;;;;;;;;;;5079838;28;20481;-80
2023/11/27 05:54:25;;;;;;;14.90;9.77;;;;;;;;;;5079849;28;20387;-80
2023/11/27 05:56:51;;;;;;;11.00;8.88;;;;;;;;;;5079585;28;20396;-80
2023/11/27 05:59:17;;;;;;;11.73;8.53;;;;;;;;;;5079497;28;20785;-81
2023/11/27 06:01:43;;;;;;;13.70;9.98;;;;;;;;;;5078600;28;20454;-79
2023/11/27 06:04:10;;;;;;;12.40;9.73;;;;;;;;;;5078541;28;20380;-79
2023/11/27 06:06:36;;;;;;;11.65;8.95;;;;;;;;;;5079133;28;20410;-79
2023/11/27 06:09:02;;;;;;;12.05;9.10;;;;;;;;;;5078987;28;20399;-79
2023/11/27 06:11:28;;;;;;;9.55;8.65;;;;;;;;;;5079070;28;20380;-79
2023/11/27 06:13:54;;;;;;;10.00;8.95;;;;;;;;;;5078539;28;20372;-79
2023/11/27 06:16:25;;;;;;;9.83;8.83;;;;;;;;;;5078981;28;20418;-79
2023/11/27 06:18:51;;;;;;;9.40;8.40;;;;;;;;;;5079210;28;20485;-80
2023/11/27 06:21:17;;;;;;;9.57;8.40;;;;;;;;;;5079159;28;20522;-79
2023/11/27 06:23:43;;;;;;;11.15;9.27;;;;;;;;;;5076602;28;20443;-79
2023/11/27 06:26:13;;;;;;;10.93;9.82;;;;;;;;;;5058662;28;20381;-79
2023/11/27 06:28:39;;;;;;;10.98;9.88;;;;;;;;;;5059131;28;20393;-79
2023/11/27 06:31:06;;;;;;;10.68;9.68;;;;;;;;;;5058190;28;20392;-80
2023/11/27 06:33:31;;;;;;;11.05;9.70;;;;;;;;;;5058520;28;20378;-79
2023/11/27 06:35:58;;;;;;;11.73;10.10;;;;;;;;;;5058816;28;20779;-79
2023/11/27 06:38:24;;;;;;;10.82;9.77;;;;;;;;;;5060754;28;20464;-80
2023/11/27 06:40:50;;;;;;;11.80;9.10;;;;;;;;;;5078691;28;20461;-80
2023/11/27 06:43:16;;;;;;;12.33;9.70;;;;;;;;;;5078942;28;20561;-79
2023/11/27 06:45:42;;;;;;;10.55;9.45;;;;;;;;;;5078895;28;20390;-80
2023/11/27 06:48:12;;;;;;;10.73;9.02;;;;;;;;;;5077925;28;20408;-80
2023/11/27 06:50:38;;;;;;;10.88;9.55;;;;;;;;;;5077751;28;20714;-80
2023/11/27 06:53:04;;;;;;;10.80;9.70;;;;;;;;;;5077605;28;20382;-80
2023/11/27 06:55:30;;;;;;;10.00;9.00;;;;;;;;;;5077756;28;20423;-80
2023/11/27 06:57:56;;;;;;;9.90;9.00;;;;;;;;;;5077877;28;20388;-80
2023/11/27 07:00:22;;;;;;;9.60;8.70;;;;;;;;;;5078849;28;20384;-80
2023/11/27 07:02:48;;;;;;;9.65;8.70;;;;;;;;;;5079012;28;20411;-79
2023/11/27 07:05:14;;;;;;;10.05;9.07;;;;;;;;;;5079112;28;20429;-80
2023/11/27 07:07:41;;;;;;;8.65;7.80;;;;;;;;;;5079269;28;20439;-79
2023/11/27 07:10:08;;;;;;;9.75;8.85;;;;;;;;;;5079330;28;20410;-79
2023/11/27 07:12:35;;;;;;;10.75;8.82;;;;;;;;;;5078739;28;20399;-80
2023/11/27 07:15:01;;;;;;;10.10;9.20;;;;;;;;;;5082842;28;20383;-81
2023/11/27 07:17:27;;;;;;;16.33;14.02;;;;;;;;;;5080560;28;20414;-81
2023/11/27 07:19:53;;;;;;;13.00;10.93;;;;;;;;;;5081273;28;20380;-81
2023/11/27 07:22:19;;;;;;;10.05;9.05;;;;;;;;;;5081792;28;20391;-81
2023/11/27 07:24:45;;;;;;;10.13;9.23;;;;;;;;;;5081086;28;20492;-81
2023/11/27 07:27:11;;;;;;;12.05;10.85;;;;;;;;;;5081168;28;20467;-81
2023/11/27 07:29:38;;;;;;;11.45;10.32;;;;;;;;;;5081116;28;20442;-81
2023/11/27 07:32:05;;;;;;;11.00;9.85;;;;;;;;;;5081513;28;20380;-81
2023/11/27 07:34:31;;;;;;;11.57;10.32;;;;;;;;;;5081101;28;20384;-81
2023/11/27 07:36:58;;;;;;;11.48;10.35;;;;;;;;;;5081889;28;20396;-81
2023/11/27 07:39:25;;;;;;;10.85;9.77;;;;;;;;;;5081691;28;20386;-81
2023/11/27 07:41:51;;;;;;;11.70;10.52;;;;;;;;;;5081624;28;20395;-81
2023/11/27 07:44:17;;;;;;;11.63;10.60;;;;;;;;;;5081314;28;20379;-81
2023/11/27 07:46:44;;;;;;;11.85;10.85;;;;;;;;;;5080547;28;20517;-81
2023/11/27 07:49:10;;;;;;;11.32;10.23;;;;;;;;;;5080718;28;20429;-81
2023/11/27 07:51:36;;;;;;;12.10;11.00;;;;;;;;;;5080077;28;20383;-81
2023/11/27 07:54:03;;;;;;;13.00;11.68;;;;;;;;;;5080643;28;20388;-82
2023/11/27 07:56:30;;;;;;;13.50;12.20;;;;;;;;;;5080689;28;20371;-82
2023/11/27 07:58:56;;;;;;;12.60;11.43;;;;;;;;;;5080586;28;20432;-82
2023/11/27 08:01:23;;;;;;;11.88;10.77;;;;;;;;;;5063261;28;20483;-82
2023/11/27 08:03:49;;;;;;;11.88;10.60;;;;;;;;;;5081100;28;20380;-82
2023/11/27 08:06:15;;;;;;;12.93;11.73;;;;;;;;;;5080313;28;20382;-82
2023/11/27 08:08:41;;;;;;;12.55;11.10;;;;;;;;;;5080182;28;20412;-83
2023/11/27 08:11:09;;;;;;;12.05;10.95;;;;;;;;;;5079655;28;20417;-82
2023/11/27 08:13:35;;;;;;;12.15;11.05;;;;;;;;;;5080090;28;20408;-82
2023/11/27 08:16:01;;;;;;;11.50;10.50;;;;;;;;;;5079647;28;20392;-82
2023/11/27 08:18:27;;;;;;;12.15;10.95;;;;;;;;;;5066683;28;20389;-82
2023/11/27 08:20:53;;;;;;;12.63;11.43;;;;;;;;;;5060644;28;20381;-82
2023/11/27 08:23:19;;;;;;;11.52;10.43;;;;;;;;;;5075443;28;20403;-82
2023/11/27 08:25:45;;;;;;;12.50;11.40;;;;;;;;;;5079355;28;20379;-82
2023/11/27 08:28:12;;;;;;;13.82;12.43;;;;;;;;;;5079229;28;20419;-80
2023/11/27 08:30:41;;;;;;;13.82;12.40;;;;;;;;;;5058684;28;20435;-80
2023/11/27 08:33:07;;;;;;;13.20;11.80;;;;;;;;;;5080065;28;20424;-81
2023/11/27 08:35:34;;;;;;;12.60;11.30;;;;;;;;;;5080819;28;20913;-81
2023/11/27 08:38:00;;;;;;;13.10;11.95;;;;;;;;;;5077869;28;20380;-81
2023/11/27 08:40:26;;;;;;;12.77;11.48;;;;;;;;;;5076859;28;20395;-81
2023/11/27 08:42:52;;;;;;;12.85;11.65;;;;;;;;;;5076617;28;20390;-82
2023/11/27 08:45:18;;;;;;;13.57;12.18;;;;;;;;;;5078813;28;20392;-81
2023/11/27 08:47:50;;;;;;;12.55;11.35;;;;;;;;;;5080827;28;20407;-80
2023/11/27 08:50:17;;;;;;;14.35;10.70;;;;;;;;;;5077296;28;20551;-80
2023/11/27 08:52:43;;;;;;;12.00;10.90;;;;;;;;;;5077459;28;20744;-81
2023/11/27 08:55:09;;;;;;;10.77;9.77;;;;;;;;;;5078796;28;20387;-81
2023/11/27 08:57:36;;;;;;;10.13;9.32;;;;;;;;;;5079091;28;20387;-81
2023/11/27 09:00:05;;;;;;;11.23;10.23;;;;;;;;;;5079289;28;20375;-81
2023/11/27 09:02:38;;;;;;;10.70;9.80;;;;;;;;;;5077753;28;20446;-81
2023/11/27 09:05:05;;;;;;;10.88;9.05;;;;;;;;;;5078859;28;20463;-81
2023/11/27 09:07:31;;;;;;;12.88;9.93;;;;;;;;;;5078296;28;20950;-80
2023/11/27 09:09:57;;;;;;;10.35;9.35;;;;;;;;;;5079373;28;20753;-81
2023/11/27 09:12:22;;;;;;;11.27;9.33;;;;;;;;;;5061730;28;20376;-81
2023/11/27 09:14:48;;;;;;;10.90;9.80;;;;;;;;;;5078909;28;20409;-80
2023/11/27 09:17:14;;;;;;;10.63;9.52;;;;;;;;;;5078214;28;20388;-80
2023/11/27 09:19:40;;;;;;;9.93;8.93;;;;;;;;;;5078803;28;20494;-80
2023/11/27 09:22:06;;;;;;;10.00;9.07;;;;;;;;;;5060948;28;20400;-81
2023/11/27 09:24:32;;;;;;;10.23;9.32;;;;;;;;;;5079206;28;20453;-81
2023/11/27 09:27:01;;;;;;;9.82;8.93;;;;;;;;;;5079832;28;20391;-80
2023/11/27 09:29:27;;;;;;;9.68;8.68;;;;;;;;;;5079866;28;20451;-80
2023/11/27 09:31:53;;;;;;;9.80;9.00;;;;;;;;;;5080801;28;20457;-80
2023/11/27 09:34:19;;;;;;;8.88;8.05;;;;;;;;;;5079909;28;20745;-80
2023/11/27 09:36:45;;;;;;;10.73;8.20;;;;;;;;;;5079925;28;20382;-80
2023/11/27 09:39:11;;;;;;;9.45;8.45;;;;;;;;;;5079876;28;20387;-80
2023/11/27 09:41:37;;;;;;;9.10;8.20;;;;;;;;;;5079347;28;20400;-81
2023/11/27 09:44:06;;;;;;;9.27;8.45;;;;;;;;;;5079890;28;20376;-80
2023/11/27 09:46:33;;;;;;;8.00;7.28;;;;;;;;;;5078874;28;20407;-80
2023/11/27 09:49:04;;;;;;;8.13;7.40;;;;;;;;;;5079556;28;20889;-80
2023/11/27 09:51:31;;;;;;;8.80;8.00;;;;;;;;;;5080713;28;20507;-81
2023/11/27 09:53:58;;;;;;;8.93;8.13;;;;;;;;;;5081154;28;20837;-80
2023/11/27 09:56:28;;;;;;;8.40;7.60;;;;;;;;;;5080308;28;20392;-81
2023/11/27 09:58:59;;;;;;;8.30;7.40;;;;;;;;;;5081085;28;20781;-80
2023/11/27 10:01:27;;;;;;;9.27;8.38;;;;;;;;;;5081349;28;20806;-80
2023/11/27 10:03:58;;;;;;;8.45;7.65;;;;;;;;;;5081304;28;20474;-81
2023/11/27 10:06:25;;;;;;;8.43;7.68;;;;;;;;;;5081636;28;20488;-81
2023/11/27 10:09:03;;;;;;;8.27;7.50;;;;;;;;;;5085852;28;20426;-81
2023/11/27 10:11:31;;;;;;;8.00;7.30;;;;;;;;;;5084534;28;20781;-82
2023/11/27 10:13:57;;;;;;;9.93;8.50;;;;;;;;;;5085382;28;20795;-81
2023/11/27 10:16:23;;;;;;;8.70;7.90;;;;;;;;;;5086220;28;20384;-81
2023/11/27 10:18:51;;;;;;;8.32;7.55;;;;;;;;;;5086215;28;20714;-81
2023/11/27 10:21:21;;;;;;;8.20;7.50;;;;;;;;;;5086443;28;20420;-81
2023/11/27 10:23:47;;;;;;;8.77;7.97;;;;;;;;;;5086025;28;20527;-80
2023/11/27 10:26:14;;;;;;;8.95;7.63;;;;;;;;;;5086750;28;20392;-81
2023/11/27 10:28:48;;;;;;;8.50;7.50;;;;;;;;;;5076806;28;20462;-81
2023/11/27 10:31:14;;;;;;;8.70;7.90;;;;;;;;;;5066153;28;20434;-81
2023/11/27 10:33:40;;;;;;;8.25;7.45;;;;;;;;;;5066416;28;20374;-81
2023/11/27 10:36:06;;;;;;;9.63;7.80;;;;;;;;;;5064042;28;20380;-81
2023/11/27 10:38:36;;;;;;;8.35;7.65;;;;;;;;;;5086471;28;20433;-81
2023/11/27 10:41:05;;;;;;;7.68;6.97;;;;;;;;;;5086704;28;20425;-82
2023/11/27 10:43:34;;;;;;;7.55;6.82;;;;;;;;;;5086376;28;20886;-81
2023/11/27 10:46:03;;;;;;;7.65;6.88;;;;;;;;;;5086000;28;20448;-81
2023/11/27 10:48:29;;;;;;;7.80;7.10;;;;;;;;;;5086259;28;20399;-81
2023/11/27 10:50:57;;;;;;;8.68;7.78;;;;;;;;;;5085638;28;20375;-80
2023/11/27 10:53:24;;;;;;;7.55;6.85;;;;;;;;;;5086184;28;20389;-80
2023/11/27 10:55:51;;;;;;;7.40;6.70;;;;;;;;;;5086049;28;20458;-80
2023/11/27 10:58:18;;;;;;;6.88;6.22;;;;;;;;;;5083521;28;20380;-81
2023/11/27 11:00:56;;;;;;;7.88;7.07;;;;;;;;;;5081493;28;20394;-81
2023/11/27 11:03:23;;;;;;;7.30;6.60;;;;;;;;;;5083419;28;20387;-81
2023/11/27 11:05:50;;;;;;;7.68;6.65;;;;;;;;;;5085613;28;20421;-81
2023/11/27 11:08:26;;;;;;;8.25;7.45;;;;;;;;;;5085661;28;20510;-82
2023/11/27 11:10:53;;;;;;;7.43;6.72;;;;;;;;;;5085872;28;20420;-81
2023/11/27 11:13:20;;;;;;;7.00;6.40;;;;;;;;;;5085699;28;20412;-81
2023/11/27 11:15:47;;;;;;;7.55;6.85;;;;;;;;;;5086243;28;20384;-81
2023/11/27 11:18:17;;;;;;;7.82;7.10;;;;;;;;;;5085197;28;20379;-81
2023/11/27 11:21:02;;;;;;;7.90;7.20;;;;;;;;;;5085529;28;20456;-81
2023/11/27 11:23:39;;;;;;;9.00;8.10;;;;;;;;;;5085101;28;20879;-81
2023/11/27 11:26:23;;;;;;;8.93;7.50;;;;;;;;;;5084448;28;20504;-81
2023/11/27 11:29:20;;;;;;;8.23;7.47;;;;;;;;;;5084568;28;20471;-82
2023/11/27 11:31:49;;;;;;;7.97;7.17;;;;;;;;;;5064741;28;20532;-81
2023/11/27 11:34:22;;;;;;;7.43;6.72;;;;;;;;;;5085448;28;20466;-81
2023/11/27 11:36:52;;;;;;;8.35;7.55;;;;;;;;;;5085477;28;20427;-81
2023/11/27 11:39:19;;;;;;;8.57;7.80;;;;;;;;;;5085362;28;20431;-81
2023/11/27 11:41:45;;;;;;;15.77;8.50;;;;;;;;;;5085424;28;20443;-81
2023/11/27 11:44:17;;;;;;;8.77;7.88;;;;;;;;;;5084397;28;20487;-81
2023/11/27 11:46:46;;;;;;;9.30;7.60;;;;;;;;;;5084399;28;20415;-81
2023/11/27 11:49:18;;;;;;;8.25;7.45;;;;;;;;;;5084571;28;20449;-81
2023/11/27 11:52:15;;;;;;;9.63;7.85;;;;;;;;;;5083978;28;20379;-81
2023/11/27 11:54:41;;;;;;;7.68;6.95;;;;;;;;;;5083860;28;20388;-81
2023/11/27 11:57:20;;;;;;;8.47;7.67;;;;;;;;;;5084199;28;20383;-81
2023/11/27 11:59:48;;;;;;;7.60;6.95;;;;;;;;;;5065965;28;20391;-81
2023/11/27 12:02:18;;;;;;;8.15;7.35;;;;;;;;;;5084788;28;20387;-81
2023/11/27 12:04:43;;;;;;;8.52;7.70;;;;;;;;;;5084088;28;20455;-82
2023/11/27 12:07:10;;;;;;;8.27;7.50;;;;;;;;;;5083824;28;20376;-81
2023/11/27 12:09:41;;;;;;;8.57;7.47;;;;;;;;;;5084662;28;20554;-81
2023/11/27 12:12:07;;;;;;;8.30;7.45;;;;;;;;;;5083820;28;20446;-80
2023/11/27 12:14:33;;;;;;;8.40;7.60;;;;;;;;;;5084063;28;20408;-81
2023/11/27 12:16:59;;;;;;;8.52;7.63;;;;;;;;;;5083618;28;20379;-81
2023/11/27 12:19:27;;;;;;;10.23;8.15;;;;;;;;;;5083490;28;21131;-81
2023/11/27 12:21:53;;;;;;;8.60;7.80;;;;;;;;;;5083834;28;20438;-81
2023/11/27 12:24:19;;;;;;;8.25;7.40;;;;;;;;;;5083222;28;20462;-83
2023/11/27 12:26:52;;;;;;;9.02;7.72;;;;;;;;;;5079206;28;20387;-81
2023/11/27 12:29:19;;;;;;;9.50;8.50;;;;;;;;;;5062861;28;20408;-82
2023/11/27 12:31:46;;;;;;;8.20;7.50;;;;;;;;;;5063217;28;20406;-81
2023/11/27 12:34:18;;;;;;;8.05;7.25;;;;;;;;;;5070531;28;20778;-81
2023/11/27 12:36:44;;;;;;;7.95;7.25;;;;;;;;;;5083289;28;20387;-82
2023/11/27 12:39:16;;;;;;;8.38;7.47;;;;;;;;;;5083354;28;20387;-82
2023/11/27 12:41:43;;;;;;;8.48;7.57;;;;;;;;;;5083427;28;20521;-81
2023/11/27 12:44:15;;;;;;;7.70;6.90;;;;;;;;;;5083782;28;20376;-81
2023/11/27 12:46:48;;;;;;;7.97;7.17;;;;;;;;;;5083244;28;20551;-81
2023/11/27 12:49:21;;;;;;;7.60;6.90;;;;;;;;;;5082701;28;20412;-81
2023/11/27 12:51:53;;;;;;;7.55;6.70;;;;;;;;;;5082361;28;22764;-81
2023/11/27 12:54:19;;;;;;;6.78;6.18;;;;;;;;;;5083210;28;20411;-81
2023/11/27 12:56:52;;;;;;;6.88;6.10;;;;;;;;;;5080163;28;20419;-82
2023/11/27 12:59:18;;;;;;;6.53;5.93;;;;;;;;;;5073969;28;20471;-82
2023/11/27 13:01:57;;;;;;;6.57;5.97;;;;;;;;;;5083310;28;20372;-82
2023/11/27 13:04:29;;;;;;;5.78;5.28;;;;;;;;;;5083852;28;20423;-82
2023/11/27 13:06:57;;;;;;;5.93;5.33;;;;;;;;;;5083135;28;20409;-82
2023/11/27 13:09:24;;;;;;;5.88;5.35;;;;;;;;;;5082414;28;20467;-82
2023/11/27 13:11:50;;;;;;;6.05;5.53;;;;;;;;;;5082726;28;20376;-82
2023/11/27 13:14:16;;;;;;;7.03;5.47;;;;;;;;;;5082756;28;20387;-82
2023/11/27 13:16:42;;;;;;;6.22;5.53;;;;;;;;;;5083885;28;20387;-82
2023/11/27 13:19:08;;;;;;;5.88;5.38;;;;;;;;;;5083755;28;20388;-82
2023/11/27 13:21:34;;;;;;;5.82;5.22;;;;;;;;;;5083890;28;20379;-82
2023/11/27 13:24:03;;;;;;;6.70;5.63;;;;;;;;;;5083237;28;20399;-82
2023/11/27 13:26:35;;;;;;;6.00;5.18;;;;;;;;;;5082077;28;20406;-82
2023/11/27 13:29:02;;;;;;;5.43;4.93;;;;;;;;;;5083253;28;20962;-82
2023/11/27 13:31:36;;;;;;;6.10;5.50;;;;;;;;;;5083409;28;20383;-82
2023/11/27 13:34:09;;;;;;;6.37;5.23;;;;;;;;;;5082441;28;20376;-82
2023/11/27 13:36:41;;;;;;;5.70;5.05;;;;;;;;;;5082767;28;20484;-82
2023/11/27 13:39:08;;;;;;;5.75;5.15;;;;;;;;;;5083159;28;20440;-82
2023/11/27 13:41:35;;;;;;;5.68;5.18;;;;;;;;;;5084792;28;20383;-83
2023/11/27 13:44:03;;;;;;;6.60;5.50;;;;;;;;;;5087546;28;20384;-82
2023/11/27 13:46:33;;;;;;;5.47;4.90;;;;;;;;;;5085975;28;20591;-82
2023/11/27 13:48:59;;;;;;;6.68;5.35;;;;;;;;;;5086060;28;20412;-82
2023/11/27 13:51:31;;;;;;;5.70;4.93;;;;;;;;;;5086210;28;20380;-82
2023/11/27 13:53:57;;;;;;;6.50;5.27;;;;;;;;;;5086192;28;20830;-82
2023/11/27 13:56:24;;;;;;;5.50;4.83;;;;;;;;;;5086167;28;20499;-82
2023/11/27 13:58:54;;;;;;;6.57;5.15;;;;;;;;;;5087095;28;20572;-82
2023/11/27 14:01:21;;;;;;;5.25;4.75;;;;;;;;;;5086370;28;20379;-82
2023/11/27 14:03:48;;;;;;;5.10;4.70;;;;;;;;;;5086288;28;20452;-82
2023/11/27 14:06:18;;;;;;;6.25;4.47;;;;;;;;;;5086378;28;20392;-81
2023/11/27 14:09:02;;;;;;;5.20;4.70;;;;;;;;;;5086218;28;20561;-82
2023/11/27 14:11:45;;;;;;;5.30;4.80;;;;;;;;;;5086934;28;20448;-82
2023/11/27 14:14:13;;;;;;;5.60;5.00;;;;;;;;;;5086633;28;20865;-82
2023/11/27 14:16:45;;;;;;;6.90;5.13;;;;;;;;;;5086579;28;20405;-82
2023/11/27 14:24:55;;;;;;;5.70;4.68;;;;;;;;;;5085802;28;20387;-83
2023/11/27 14:29:51;;;;;;;4.85;4.35;;;;;;;;;;5085060;28;20478;-82
2023/11/27 14:32:18;;;;;;;6.25;5.13;;;;;;;;;;5085973;28;20439;-82
2023/11/27 14:34:45;;;;;;;6.63;5.22;;;;;;;;;;5085407;28;20380;-82
2023/11/27 14:37:12;;;;;;;5.68;4.90;;;;;;;;;;5083928;28;20872;-85
2023/11/27 14:39:38;;;;;;;4.95;4.43;;;;;;;;;;5085379;28;20807;-80
2023/11/27 14:42:07;;;;;;;6.05;4.95;;;;;;;;;;5086266;28;20471;-80
2023/11/27 14:44:33;;;;;;;5.72;4.85;;;;;;;;;;5086081;28;20387;-80